Norfolk — WDG2147 — position and weather

sailwx.info

Track history (hours):
 
Tides and Currents Weather Stations Pressure Air Temp Water Temp Dewpoint Dewpoint Depression Visibility Wind Speed Wind Dir Waves Ship Positions

Norfolk

Owner: Virginia Pilot Boat Corporation, Virginia Beach, VA. More information available from US FCC via Universal Licensing System and Coast Guard Vessel Documentation Center.

Last reported at 2017-Jan-19 18:32 UTC. Time now 2017-Jan-19 19:17 UTC.
Position N 36°54' W 076°05'.

Length 18 m; draft 1.5 m.

Type: Pilot. MMSI: 367512630.

Date/timePositionNaut miles runAvg speedWind from/ knotsBaromVisibWave heightAir tempDewpointWater temp
2017-Jan-19 18:32N 36°54' W 076°05'0 0.0
2017-Jan-19 17:33N 36°54' W 076°05'0 0.0
2017-Jan-19 16:33N 36°54' W 076°05'8 7.6
2017-Jan-19 15:33N 36°56' W 075°56'8 5.9
2017-Jan-19 14:16N 36°54' W 076°05'4 5.6
2017-Jan-19 13:32N 36°56' W 076°01'4 0.2
2017-Jan-18 20:33N 36°54' W 076°05'0 0.0
2017-Jan-18 16:33N 36°54' W 076°05'0 0.0
2017-Jan-18 14:12N 36°54' W 076°05'0 0.0
2017-Jan-18 13:23N 36°54' W 076°05'0 0.0
2017-Jan-18 12:33N 36°54' W 076°05'0 0.0
2017-Jan-17 20:30N 36°54' W 076°05'1 1.0
2017-Jan-17 19:33N 36°55' W 076°05'2 2.3
2017-Jan-17 18:33N 36°56' W 076°02'3 3.0
2017-Jan-17 17:33N 36°54' W 076°05'2 2.4
2017-Jan-17 16:32N 36°57' W 076°04'2 1.1
2017-Jan-17 14:17N 36°54' W 076°05'0 0.0
2017-Jan-16 13:33N 36°54' W 076°05'3 2.7
2017-Jan-16 12:33N 36°56' W 076°03'2 0.1
2017-Jan-15 21:33N 36°55' W 076°05'1 0.4
2017-Jan-15 19:33N 36°54' W 076°05'0 0.0
2017-Jan-15 17:33N 36°54' W 076°05'0 0.0
2017-Jan-15 16:33N 36°54' W 076°05'0 0.0
2017-Jan-15 15:33N 36°54' W 076°05'0 0.0
2017-Jan-15 14:33N 36°54' W 076°05'3 1.4
2017-Jan-15 12:33N 36°57' W 076°05'3 0.8
2017-Jan-15 09:22N 36°57' W 076°02'4 4.8
2017-Jan-15 08:32N 36°54' W 076°05'4 0.4
2017-Jan-14 23:13N 36°57' W 076°02'1 0.8
2017-Jan-14 21:33N 36°56' W 076°01'4 4.2
2017-Jan-14 20:33N 36°54' W 076°05'4 1.5
2017-Jan-14 18:08N 36°58' W 076°05'4 5.0
2017-Jan-14 17:24N 36°54' W 076°05'0 0.0
2017-Jan-14 16:32N 36°54' W 076°05'0 0.0
2017-Jan-14 15:33N 36°54' W 076°05'0 0.0
2017-Jan-14 14:32N 36°54' W 076°05'0 0.0
2017-Jan-13 21:32N 36°54' W 076°05'0 0.0
2017-Jan-13 20:31N 36°54' W 076°05'0 0.0
2017-Jan-13 19:33N 36°54' W 076°05'0 0.0
2017-Jan-13 16:03N 36°54' W 076°05'610.8
2017-Jan-13 15:31N 36°56' W 075°58'6 6.0
2017-Jan-13 14:34N 36°54' W 076°05'0 0.0
2017-Jan-13 13:34N 36°54' W 076°05'3 3.1
2017-Jan-13 12:30N 36°56' W 076°02'3 0.2
2017-Jan-12 17:30N 36°58' W 076°05'3 2.5
2017-Jan-12 16:08N 36°54' W 076°05'4 6.2
2017-Jan-12 15:31N 36°58' W 076°03'5 5.6
2017-Jan-12 14:33N 36°56' W 075°56'7 7.0
2017-Jan-12 13:32N 36°55' W 076°05'1 0.7
2017-Jan-12 12:29N 36°56' W 076°04'1 0.1
2017-Jan-11 20:33N 36°54' W 076°05'4 4.3
2017-Jan-11 19:33N 36°57' W 076°01'1 0.5
2017-Jan-11 18:30N 36°56' W 076°01'4 4.2
2017-Jan-11 17:33N 36°54' W 076°05'0 0.0
2017-Jan-11 14:21N 36°54' W 076°05'4 4.5
2017-Jan-11 13:27N 36°56' W 076°01'3 0.2
2017-Jan-10 20:33N 36°56' W 076°04'2 1.6
2017-Jan-10 19:27N 36°54' W 076°05'0 0.0
2017-Jan-10 18:31N 36°54' W 076°05'0 0.0
2017-Jan-10 17:33N 36°54' W 076°05'0 0.0
2017-Jan-10 16:33N 36°54' W 076°05'0 0.0
2017-Jan-10 15:31N 36°54' W 076°05'0 0.0
2017-Jan-10 14:13N 36°54' W 076°05'0 0.0
2017-Jan-10 13:33N 36°54' W 076°05'0 0.0
2017-Jan-10 12:34N 36°54' W 076°05'1 0.8
2017-Jan-10 11:21N 36°55' W 076°05'1 1.1
2017-Jan-10 10:25N 36°54' W 076°05'0 0.0
2017-Jan-10 09:15N 36°54' W 076°05'3 4.9
2017-Jan-10 08:33N 36°56' W 076°02'3 1.3
2017-Jan-10 06:30N 36°56' W 076°05'2 1.5
2017-Jan-10 05:14N 36°54' W 076°05'2 2.6
2017-Jan-10 04:31N 36°56' W 076°04'2 1.9
2017-Jan-10 03:33N 36°54' W 076°05'0 0.0
2017-Jan-10 00:28N 36°54' W 076°05'0 0.0
2017-Jan-09 22:12N 36°54' W 076°05'0 0.0
2017-Jan-09 20:19N 36°54' W 076°05'0 0.0
2017-Jan-09 19:30N 36°54' W 076°05'0 0.0
2017-Jan-09 18:33N 36°54' W 076°05'  
Track history (hours):
 
Tides and Currents Weather Stations Pressure Air Temp Water Temp Dewpoint Dewpoint Depression Visibility Wind Speed Wind Dir Waves Ship Positions

Norfolk

Owner: Virginia Pilot Boat Corporation, Virginia Beach, VA. More information available from US FCC via Universal Licensing System and Coast Guard Vessel Documentation Center.

Last reported at 2017-Jan-19 18:32 UTC. Time now 2017-Jan-19 19:17 UTC.
Position N 36°54' W 076°05'.

Length 18 m; draft 1.5 m.

Type: Pilot. MMSI: 367512630.

Date/timePositionNaut miles runAvg speedWind from/ knotsBaromVisibWave heightAir tempDewpointWater temp
2017-Jan-19 18:32N 36°54' W 076°05'0 0.0
2017-Jan-19 17:33N 36°54' W 076°05'0 0.0
2017-Jan-19 16:33N 36°54' W 076°05'8 7.6
2017-Jan-19 15:33N 36°56' W 075°56'8 5.9
2017-Jan-19 14:16N 36°54' W 076°05'4 5.6
2017-Jan-19 13:32N 36°56' W 076°01'4 0.2
2017-Jan-18 20:33N 36°54' W 076°05'0 0.0
2017-Jan-18 16:33N 36°54' W 076°05'0 0.0
2017-Jan-18 14:12N 36°54' W 076°05'0 0.0
2017-Jan-18 13:23N 36°54' W 076°05'0 0.0
2017-Jan-18 12:33N 36°54' W 076°05'0 0.0
2017-Jan-17 20:30N 36°54' W 076°05'1 1.0
2017-Jan-17 19:33N 36°55' W 076°05'2 2.3
2017-Jan-17 18:33N 36°56' W 076°02'3 3.0
2017-Jan-17 17:33N 36°54' W 076°05'2 2.4
2017-Jan-17 16:32N 36°57' W 076°04'2 1.1
2017-Jan-17 14:17N 36°54' W 076°05'0 0.0
2017-Jan-16 13:33N 36°54' W 076°05'3 2.7
2017-Jan-16 12:33N 36°56' W 076°03'2 0.1
2017-Jan-15 21:33N 36°55' W 076°05'1 0.4
2017-Jan-15 19:33N 36°54' W 076°05'0 0.0
2017-Jan-15 17:33N 36°54' W 076°05'0 0.0
2017-Jan-15 16:33N 36°54' W 076°05'0 0.0
2017-Jan-15 15:33N 36°54' W 076°05'0 0.0
2017-Jan-15 14:33N 36°54' W 076°05'3 1.4
2017-Jan-15 12:33N 36°57' W 076°05'3 0.8
2017-Jan-15 09:22N 36°57' W 076°02'4 4.8
2017-Jan-15 08:32N 36°54' W 076°05'4 0.4
2017-Jan-14 23:13N 36°57' W 076°02'1 0.8
2017-Jan-14 21:33N 36°56' W 076°01'4 4.2
2017-Jan-14 20:33N 36°54' W 076°05'4 1.5
2017-Jan-14 18:08N 36°58' W 076°05'4 5.0
2017-Jan-14 17:24N 36°54' W 076°05'0 0.0
2017-Jan-14 16:32N 36°54' W 076°05'0 0.0
2017-Jan-14 15:33N 36°54' W 076°05'0 0.0
2017-Jan-14 14:32N 36°54' W 076°05'0 0.0
2017-Jan-13 21:32N 36°54' W 076°05'0 0.0
2017-Jan-13 20:31N 36°54' W 076°05'0 0.0
2017-Jan-13 19:33N 36°54' W 076°05'0 0.0
2017-Jan-13 16:03N 36°54' W 076°05'610.8
2017-Jan-13 15:31N 36°56' W 075°58'6 6.0
2017-Jan-13 14:34N 36°54' W 076°05'0 0.0
2017-Jan-13 13:34N 36°54' W 076°05'3 3.1
2017-Jan-13 12:30N 36°56' W 076°02'3 0.2
2017-Jan-12 17:30N 36°58' W 076°05'3 2.5
2017-Jan-12 16:08N 36°54' W 076°05'4 6.2
2017-Jan-12 15:31N 36°58' W 076°03'5 5.6
2017-Jan-12 14:33N 36°56' W 075°56'7 7.0
2017-Jan-12 13:32N 36°55' W 076°05'1 0.7
2017-Jan-12 12:29N 36°56' W 076°04'1 0.1
2017-Jan-11 20:33N 36°54' W 076°05'4 4.3
2017-Jan-11 19:33N 36°57' W 076°01'1 0.5
2017-Jan-11 18:30N 36°56' W 076°01'4 4.2
2017-Jan-11 17:33N 36°54' W 076°05'0 0.0
2017-Jan-11 14:21N 36°54' W 076°05'4 4.5
2017-Jan-11 13:27N 36°56' W 076°01'3 0.2
2017-Jan-10 20:33N 36°56' W 076°04'2 1.6
2017-Jan-10 19:27N 36°54' W 076°05'0 0.0
2017-Jan-10 18:31N 36°54' W 076°05'0 0.0
2017-Jan-10 17:33N 36°54' W 076°05'0 0.0
2017-Jan-10 16:33N 36°54' W 076°05'0 0.0
2017-Jan-10 15:31N 36°54' W 076°05'0 0.0
2017-Jan-10 14:13N 36°54' W 076°05'0 0.0
2017-Jan-10 13:33N 36°54' W 076°05'0 0.0
2017-Jan-10 12:34N 36°54' W 076°05'1 0.8
2017-Jan-10 11:21N 36°55' W 076°05'1 1.1
2017-Jan-10 10:25N 36°54' W 076°05'0 0.0
2017-Jan-10 09:15N 36°54' W 076°05'3 4.9
2017-Jan-10 08:33N 36°56' W 076°02'3 1.3
2017-Jan-10 06:30N 36°56' W 076°05'2 1.5
2017-Jan-10 05:14N 36°54' W 076°05'2 2.6
2017-Jan-10 04:31N 36°56' W 076°04'2 1.9
2017-Jan-10 03:33N 36°54' W 076°05'0 0.0
2017-Jan-10 00:28N 36°54' W 076°05'0 0.0
2017-Jan-09 22:12N 36°54' W 076°05'0 0.0
2017-Jan-09 20:19N 36°54' W 076°05'0 0.0
2017-Jan-09 19:30N 36°54' W 076°05'0 0.0
2017-Jan-09 18:33N 36°54' W 076°05'  

Dump ship's entire track history